Time;durP1;ratioP1;P1;durP2;ratioP2;P2;SDS_P1;SDS_P2;PMS_P1;PMS_P2;Temp;Humidity;BMP_temperature;BMP_pressure;BME280_temperature;BME280_humidity;BME280_pressure;Samples;Min_cycle;Max_cycle;Signal;HPM_P1;HPM_P2
2023/07/17 00:01:39;;;;;;;0.80;0.80;;;;;;;;;;5020299;28;20528;-77
2023/07/17 00:04:05;;;;;;;1.38;0.98;;;;;;;;;;5017154;28;20712;-76
2023/07/17 00:06:31;;;;;;;1.27;1.08;;;;;;;;;;5018694;28;20448;-76
2023/07/17 00:08:57;;;;;;;2.42;1.08;;;;;;;;;;5025442;28;20947;-76
2023/07/17 00:11:23;;;;;;;1.70;1.00;;;;;;;;;;5027777;28;20065;-75
2023/07/17 00:13:49;;;;;;;3.05;1.25;;;;;;;;;;5027802;28;20061;-76
2023/07/17 00:16:15;;;;;;;1.23;0.88;;;;;;;;;;5024774;28;20052;-76
2023/07/17 00:18:41;;;;;;;1.42;0.85;;;;;;;;;;5017169;28;20029;-76
2023/07/17 00:21:07;;;;;;;1.13;0.88;;;;;;;;;;5027052;28;20025;-76
2023/07/17 00:23:33;;;;;;;0.90;0.75;;;;;;;;;;5023348;28;20017;-76
2023/07/17 00:25:59;;;;;;;1.63;1.02;;;;;;;;;;5019691;28;20918;-75
2023/07/17 00:28:25;;;;;;;1.50;1.02;;;;;;;;;;5027245;28;20034;-76
2023/07/17 00:30:51;;;;;;;1.48;1.10;;;;;;;;;;5026246;28;20120;-76
2023/07/17 00:33:17;;;;;;;1.08;0.80;;;;;;;;;;5019369;28;20392;-76
2023/07/17 00:35:43;;;;;;;5.40;1.40;;;;;;;;;;5023694;28;20022;-76
2023/07/17 00:38:09;;;;;;;3.72;1.00;;;;;;;;;;5027914;28;20025;-76
2023/07/17 00:40:39;;;;;;;1.20;1.00;;;;;;;;;;5019327;28;20022;-76
2023/07/17 00:43:08;;;;;;;0.80;0.80;;;;;;;;;;5028403;28;20022;-75
2023/07/17 00:45:34;;;;;;;1.38;1.17;;;;;;;;;;5028709;28;20026;-75
2023/07/17 00:48:00;;;;;;;1.10;1.00;;;;;;;;;;5028305;28;20025;-77
2023/07/17 00:50:27;;;;;;;1.00;0.90;;;;;;;;;;5028579;28;20468;-76
2023/07/17 00:52:54;;;;;;;1.27;1.00;;;;;;;;;;5028294;28;20026;-76
2023/07/17 00:55:20;;;;;;;3.50;1.02;;;;;;;;;;5027581;28;20033;-76
2023/07/17 00:57:47;;;;;;;0.88;0.88;;;;;;;;;;5028579;28;20116;-76
2023/07/17 01:00:14;;;;;;;1.05;0.98;;;;;;;;;;5029208;28;20025;-76
2023/07/17 01:02:40;;;;;;;1.42;1.10;;;;;;;;;;5031982;28;20014;-77
2023/07/17 01:05:08;;;;;;;1.38;1.25;;;;;;;;;;5031984;28;20109;-76
2023/07/17 01:07:34;;;;;;;1.40;1.00;;;;;;;;;;5030675;28;20029;-77
2023/07/17 01:10:00;;;;;;;1.73;1.05;;;;;;;;;;5030593;28;20021;-75
2023/07/17 01:12:27;;;;;;;1.60;1.08;;;;;;;;;;5031077;28;20037;-76
2023/07/17 01:14:53;;;;;;;2.00;1.05;;;;;;;;;;5025598;28;20057;-75
2023/07/17 01:17:19;;;;;;;0.85;0.68;;;;;;;;;;5030122;28;20496;-76
2023/07/17 01:19:45;;;;;;;1.15;0.93;;;;;;;;;;5027434;28;20088;-76
2023/07/17 01:22:17;;;;;;;1.98;1.08;;;;;;;;;;5026818;28;20018;-76
2023/07/17 01:24:43;;;;;;;1.77;1.20;;;;;;;;;;5021849;28;20026;-76
2023/07/17 01:27:09;;;;;;;0.70;0.70;;;;;;;;;;5025856;28;20026;-76
2023/07/17 01:29:35;;;;;;;1.33;0.95;;;;;;;;;;5026488;28;20548;-75
2023/07/17 01:32:01;;;;;;;2.05;1.20;;;;;;;;;;5028741;28;20037;-76
2023/07/17 01:34:27;;;;;;;1.10;0.85;;;;;;;;;;5023370;28;20032;-76
2023/07/17 01:36:53;;;;;;;2.30;0.85;;;;;;;;;;5022683;28;20029;-76
2023/07/17 01:39:19;;;;;;;0.85;0.85;;;;;;;;;;5031498;28;20528;-76
2023/07/17 01:41:45;;;;;;;0.95;0.95;;;;;;;;;;5031861;28;20079;-76
2023/07/17 01:44:12;;;;;;;1.13;0.90;;;;;;;;;;5031498;28;20040;-75
2023/07/17 01:46:38;;;;;;;1.23;0.95;;;;;;;;;;5027587;28;20040;-76
2023/07/17 01:49:04;;;;;;;1.27;0.98;;;;;;;;;;5025526;28;20033;-77
2023/07/17 01:51:30;;;;;;;1.00;0.90;;;;;;;;;;5031215;28;20029;-76
2023/07/17 01:53:56;;;;;;;1.73;1.10;;;;;;;;;;5031125;28;20044;-76
2023/07/17 01:56:22;;;;;;;0.88;0.75;;;;;;;;;;5031297;28;20022;-76
2023/07/17 01:58:48;;;;;;;0.88;0.82;;;;;;;;;;5031262;28;20032;-76
2023/07/17 02:01:15;;;;;;;1.17;0.95;;;;;;;;;;5031097;28;20021;-76
2023/07/17 02:03:41;;;;;;;1.58;1.13;;;;;;;;;;5027543;28;20025;-76
2023/07/17 02:06:07;;;;;;;3.17;0.98;;;;;;;;;;5030452;28;20056;-77
2023/07/17 02:08:33;;;;;;;1.08;0.95;;;;;;;;;;5028562;28;20025;-76
2023/07/17 02:10:59;;;;;;;2.15;1.08;;;;;;;;;;5011531;28;20061;-76
2023/07/17 02:13:25;;;;;;;1.23;1.13;;;;;;;;;;5029035;28;20076;-76
2023/07/17 02:15:51;;;;;;;1.23;1.13;;;;;;;;;;5022058;28;20476;-76
2023/07/17 02:18:17;;;;;;;2.03;1.08;;;;;;;;;;5026603;28;20017;-76
2023/07/17 02:20:43;;;;;;;1.10;1.00;;;;;;;;;;5030068;28;20116;-76
2023/07/17 02:23:09;;;;;;;1.45;1.10;;;;;;;;;;5018074;28;20408;-76
2023/07/17 02:25:38;;;;;;;1.20;0.85;;;;;;;;;;5030803;28;20030;-75
2023/07/17 02:28:04;;;;;;;2.65;0.90;;;;;;;;;;5030564;28;20071;-76
2023/07/17 02:30:30;;;;;;;1.67;0.88;;;;;;;;;;5030914;28;20116;-77
2023/07/17 02:32:56;;;;;;;0.93;0.90;;;;;;;;;;5020257;28;20037;-77
2023/07/17 02:35:22;;;;;;;2.17;1.00;;;;;;;;;;5018173;28;20025;-77
2023/07/17 02:37:48;;;;;;;1.77;1.30;;;;;;;;;;5025255;28;20013;-77
2023/07/17 02:40:15;;;;;;;0.80;0.80;;;;;;;;;;5025245;28;20468;-77
2023/07/17 02:42:41;;;;;;;1.63;1.33;;;;;;;;;;5023257;28;20018;-76
2023/07/17 02:45:08;;;;;;;1.40;1.10;;;;;;;;;;5028143;28;20456;-76
2023/07/17 02:47:34;;;;;;;1.20;1.10;;;;;;;;;;5021051;28;20060;-76
2023/07/17 02:50:00;;;;;;;1.77;1.10;;;;;;;;;;5019126;28;20061;-76
2023/07/17 02:52:27;;;;;;;1.13;0.90;;;;;;;;;;5025698;28;20521;-76
2023/07/17 02:54:53;;;;;;;1.00;0.75;;;;;;;;;;5026077;28;20021;-76
2023/07/17 02:57:19;;;;;;;2.53;1.15;;;;;;;;;;5027492;28;20025;-76
2023/07/17 02:59:45;;;;;;;1.02;1.00;;;;;;;;;;5024606;28;20026;-76
2023/07/17 03:02:11;;;;;;;1.40;1.00;;;;;;;;;;5023631;28;20075;-76
2023/07/17 03:04:37;;;;;;;1.65;0.93;;;;;;;;;;5019366;28;20096;-76
2023/07/17 03:07:03;;;;;;;1.60;1.08;;;;;;;;;;5022155;28;20072;-77
2023/07/17 03:09:29;;;;;;;0.80;0.80;;;;;;;;;;5029126;28;20048;-76
2023/07/17 03:11:55;;;;;;;0.80;0.80;;;;;;;;;;5012410;28;20022;-76
2023/07/17 03:14:21;;;;;;;1.30;1.05;;;;;;;;;;5028451;28;20048;-77
2023/07/17 03:16:47;;;;;;;1.55;0.85;;;;;;;;;;5029108;28;20017;-77
2023/07/17 03:19:13;;;;;;;1.73;1.58;;;;;;;;;;5026094;28;20408;-76
2023/07/17 03:21:39;;;;;;;1.08;0.98;;;;;;;;;;5017778;28;20373;-76
2023/07/17 03:24:06;;;;;;;1.88;1.08;;;;;;;;;;5025594;28;20037;-76
2023/07/17 03:26:32;;;;;;;1.70;1.10;;;;;;;;;;5021858;28;20112;-76
2023/07/17 03:28:57;;;;;;;1.60;1.17;;;;;;;;;;5023799;28;20072;-76
2023/07/17 03:31:23;;;;;;;1.75;1.00;;;;;;;;;;5020624;28;20041;-76
2023/07/17 03:33:49;;;;;;;1.40;1.17;;;;;;;;;;5027850;28;20032;-76
2023/07/17 03:36:15;;;;;;;1.65;1.00;;;;;;;;;;5025060;28;20033;-76
2023/07/17 03:38:41;;;;;;;1.45;1.10;;;;;;;;;;5029303;28;20028;-76
2023/07/17 03:41:07;;;;;;;2.05;0.80;;;;;;;;;;5029422;28;20044;-76
2023/07/17 03:43:33;;;;;;;1.70;1.20;;;;;;;;;;5032082;28;20025;-76
2023/07/17 03:45:59;;;;;;;1.40;0.80;;;;;;;;;;5028961;28;20037;-77
2023/07/17 03:48:25;;;;;;;1.50;1.02;;;;;;;;;;5029587;28;20026;-77
2023/07/17 03:50:51;;;;;;;1.67;0.80;;;;;;;;;;5029413;28;20026;-76
2023/07/17 03:53:17;;;;;;;1.33;0.93;;;;;;;;;;5029022;28;20710;-76
2023/07/17 03:55:43;;;;;;;0.75;0.75;;;;;;;;;;5038454;28;20479;-76
2023/07/17 03:58:09;;;;;;;1.98;1.08;;;;;;;;;;5029191;28;20087;-76
2023/07/17 04:00:35;;;;;;;0.80;0.80;;;;;;;;;;5029852;28;20297;-77
2023/07/17 04:03:01;;;;;;;1.45;1.00;;;;;;;;;;5010077;28;20055;-76
2023/07/17 04:05:27;;;;;;;1.27;1.08;;;;;;;;;;5022372;28;20061;-76
2023/07/17 04:07:53;;;;;;;1.00;0.90;;;;;;;;;;5016130;28;20029;-76
2023/07/17 04:10:19;;;;;;;1.25;0.90;;;;;;;;;;5018027;28;20037;-76
2023/07/17 04:12:45;;;;;;;1.73;1.02;;;;;;;;;;5025181;28;20107;-76
2023/07/17 04:15:12;;;;;;;3.97;1.63;;;;;;;;;;5018745;28;20029;-76
2023/07/17 04:17:37;;;;;;;1.30;1.10;;;;;;;;;;5020356;28;20772;-76
2023/07/17 04:20:04;;;;;;;1.48;1.15;;;;;;;;;;5024789;28;20031;-76
2023/07/17 04:22:30;;;;;;;1.23;0.82;;;;;;;;;;5028046;28;20116;-76
2023/07/17 04:24:56;;;;;;;1.48;0.88;;;;;;;;;;5023399;28;20037;-76
2023/07/17 04:27:22;;;;;;;2.00;1.42;;;;;;;;;;5027765;28;20044;-76
2023/07/17 04:29:47;;;;;;;1.30;1.20;;;;;;;;;;5025967;28;20029;-76
2023/07/17 04:32:14;;;;;;;1.25;1.08;;;;;;;;;;5028482;28;20025;-76
2023/07/17 04:34:40;;;;;;;1.17;1.05;;;;;;;;;;5018373;28;20528;-77
2023/07/17 04:37:06;;;;;;;0.90;0.90;;;;;;;;;;5023817;28;20087;-77
2023/07/17 04:39:32;;;;;;;2.17;1.02;;;;;;;;;;5027836;28;20024;-76
2023/07/17 04:41:58;;;;;;;1.73;1.23;;;;;;;;;;5032591;28;20022;-77
2023/07/17 04:44:24;;;;;;;1.25;0.93;;;;;;;;;;5029941;28;20038;-76
2023/07/17 04:46:50;;;;;;;1.10;1.00;;;;;;;;;;5027810;28;20044;-76
2023/07/17 04:49:16;;;;;;;1.40;1.10;;;;;;;;;;5032221;28;20038;-77
2023/07/17 04:51:42;;;;;;;1.65;0.98;;;;;;;;;;5028788;28;20495;-76
2023/07/17 04:54:08;;;;;;;0.77;0.70;;;;;;;;;;5030856;28;20029;-77
2023/07/17 04:56:34;;;;;;;1.15;1.05;;;;;;;;;;5029420;28;20108;-76
2023/07/17 04:59:00;;;;;;;1.20;1.00;;;;;;;;;;5026208;28;20025;-76
2023/07/17 05:01:26;;;;;;;1.02;0.85;;;;;;;;;;5032873;28;20388;-76
2023/07/17 05:03:52;;;;;;;1.90;1.30;;;;;;;;;;5025216;28;20021;-76
2023/07/17 05:06:18;;;;;;;1.65;1.10;;;;;;;;;;5032713;28;20563;-76
2023/07/17 05:08:44;;;;;;;1.27;0.98;;;;;;;;;;5032390;28;20063;-76
2023/07/17 05:11:11;;;;;;;1.30;1.00;;;;;;;;;;5030265;28;20033;-76
2023/07/17 05:13:37;;;;;;;1.83;1.20;;;;;;;;;;5032934;28;20030;-77
2023/07/17 05:16:03;;;;;;;0.80;0.80;;;;;;;;;;5035172;28;20034;-76
2023/07/17 05:18:29;;;;;;;2.15;1.23;;;;;;;;;;5027974;28;20030;-76
2023/07/17 05:20:55;;;;;;;1.20;1.05;;;;;;;;;;5033734;28;20029;-76
2023/07/17 05:23:21;;;;;;;1.10;0.93;;;;;;;;;;5030332;28;20117;-76
2023/07/17 05:25:55;;;;;;;2.13;0.93;;;;;;;;;;5032697;28;20036;-76
2023/07/17 05:28:21;;;;;;;1.20;1.10;;;;;;;;;;5037339;28;20046;-76
2023/07/17 05:30:51;;;;;;;1.13;1.02;;;;;;;;;;5033398;28;20029;-76
2023/07/17 05:33:17;;;;;;;1.42;0.90;;;;;;;;;;5032216;28;20472;-76
2023/07/17 05:35:43;;;;;;;1.27;1.00;;;;;;;;;;5034855;28;20028;-76
2023/07/17 05:38:09;;;;;;;1.60;1.10;;;;;;;;;;5034614;28;20036;-76
2023/07/17 05:40:37;;;;;;;1.00;0.88;;;;;;;;;;5035831;28;20171;-77
2023/07/17 05:43:04;;;;;;;1.50;1.10;;;;;;;;;;5035980;28;20017;-76
2023/07/17 05:45:30;;;;;;;1.10;0.98;;;;;;;;;;5035742;28;20029;-76
2023/07/17 05:47:56;;;;;;;1.50;1.10;;;;;;;;;;5032312;28;20075;-76
2023/07/17 05:50:22;;;;;;;2.58;1.20;;;;;;;;;;5032694;28;20373;-76
2023/07/17 05:52:49;;;;;;;1.52;1.00;;;;;;;;;;5032099;28;20063;-78
2023/07/17 05:55:15;;;;;;;0.95;0.85;;;;;;;;;;5034463;28;20128;-76
2023/07/17 05:57:41;;;;;;;3.90;1.63;;;;;;;;;;5033252;28;20097;-77
2023/07/17 06:00:11;;;;;;;3.63;0.95;;;;;;;;;;5031165;28;20052;-76
2023/07/17 06:02:36;;;;;;;1.65;0.95;;;;;;;;;;5025814;28;20578;-76
2023/07/17 06:05:03;;;;;;;1.10;0.90;;;;;;;;;;5019843;28;20037;-76
2023/07/17 06:07:30;;;;;;;2.05;1.10;;;;;;;;;;5027056;28;20026;-76
2023/07/17 06:09:56;;;;;;;0.98;0.90;;;;;;;;;;5027169;28;20033;-76
2023/07/17 06:12:22;;;;;;;1.85;1.00;;;;;;;;;;5025412;28;20401;-76
2023/07/17 06:14:48;;;;;;;3.08;1.42;;;;;;;;;;5025788;28;20124;-76
2023/07/17 06:17:14;;;;;;;2.50;0.80;;;;;;;;;;5031221;28;20025;-75
2023/07/17 06:19:40;;;;;;;1.48;1.10;;;;;;;;;;5031682;28;20018;-75
2023/07/17 06:22:06;;;;;;;1.65;0.98;;;;;;;;;;5033724;28;20021;-75
2023/07/17 06:24:32;;;;;;;1.23;0.98;;;;;;;;;;5043992;28;20025;-75
2023/07/17 06:26:59;;;;;;;1.95;1.27;;;;;;;;;;5051484;28;20095;-77
2023/07/17 06:29:25;;;;;;;1.83;1.00;;;;;;;;;;5033133;28;20025;-77
2023/07/17 06:31:51;;;;;;;1.92;1.05;;;;;;;;;;5035739;28;20083;-76
2023/07/17 06:34:20;;;;;;;1.15;1.05;;;;;;;;;;5030092;28;20144;-77
2023/07/17 06:36:46;;;;;;;1.42;1.00;;;;;;;;;;5026227;28;20112;-75
2023/07/17 06:39:30;;;;;;;1.35;1.05;;;;;;;;;;5020535;28;20380;-76
2023/07/17 06:41:56;;;;;;;1.10;0.90;;;;;;;;;;5025834;28;20124;-75
2023/07/17 06:44:22;;;;;;;1.92;1.23;;;;;;;;;;5029020;28;20080;-75
2023/07/17 06:46:48;;;;;;;1.23;0.90;;;;;;;;;;5026436;28;20084;-75
2023/07/17 06:49:14;;;;;;;1.23;1.05;;;;;;;;;;5025498;28;20037;-77
2023/07/17 06:51:40;;;;;;;1.88;1.30;;;;;;;;;;5031971;28;20034;-75
2023/07/17 06:54:06;;;;;;;2.00;1.27;;;;;;;;;;5022568;28;20032;-74
2023/07/17 06:56:32;;;;;;;1.77;0.98;;;;;;;;;;5029700;28;20033;-75
2023/07/17 06:58:58;;;;;;;1.92;1.23;;;;;;;;;;5028163;28;20033;-74
2023/07/17 07:01:24;;;;;;;1.48;1.15;;;;;;;;;;5030155;28;20029;-75
2023/07/17 07:03:50;;;;;;;1.33;1.00;;;;;;;;;;5030577;28;20492;-74
2023/07/17 07:06:16;;;;;;;1.80;1.38;;;;;;;;;;5012770;28;20077;-75
2023/07/17 07:08:42;;;;;;;1.95;1.40;;;;;;;;;;5035229;28;20053;-76
2023/07/17 07:11:08;;;;;;;2.08;1.40;;;;;;;;;;5029100;28;20033;-75
2023/07/17 07:13:34;;;;;;;2.58;1.10;;;;;;;;;;5033629;28;20053;-75
2023/07/17 07:16:00;;;;;;;1.27;1.10;;;;;;;;;;5030657;28;20469;-75
2023/07/17 07:18:26;;;;;;;3.25;1.40;;;;;;;;;;5034741;28;20025;-75
2023/07/17 07:20:52;;;;;;;3.85;2.20;;;;;;;;;;5041697;28;20045;-75
2023/07/17 07:23:18;;;;;;;5.68;1.52;;;;;;;;;;5044367;28;20112;-75
2023/07/17 07:25:44;;;;;;;2.40;1.10;;;;;;;;;;5049868;28;20025;-74
2023/07/17 07:28:12;;;;;;;3.58;1.88;;;;;;;;;;5044856;28;20036;-75
2023/07/17 07:30:38;;;;;;;1.50;1.40;;;;;;;;;;5029454;28;20300;-75
2023/07/17 07:33:04;;;;;;;3.17;1.40;;;;;;;;;;5029708;28;20030;-75
2023/07/17 07:35:30;;;;;;;1.40;1.30;;;;;;;;;;5029480;28;20093;-74
2023/07/17 07:37:56;;;;;;;2.78;1.95;;;;;;;;;;5010037;28;20040;-74
2023/07/17 07:40:22;;;;;;;3.25;1.58;;;;;;;;;;5040206;28;20028;-74
2023/07/17 07:42:48;;;;;;;3.63;1.58;;;;;;;;;;5011715;28;20018;-75
2023/07/17 07:45:14;;;;;;;3.38;1.33;;;;;;;;;;5029378;28;20546;-74
2023/07/17 07:47:40;;;;;;;2.92;1.65;;;;;;;;;;5029210;28;20049;-75
2023/07/17 07:50:07;;;;;;;5.38;1.60;;;;;;;;;;5031277;28;20037;-75
2023/07/17 07:52:33;;;;;;;3.10;1.75;;;;;;;;;;5028441;28;20703;-75
2023/07/17 07:54:59;;;;;;;1.83;1.58;;;;;;;;;;5032488;28;20033;-75
2023/07/17 07:57:25;;;;;;;1.40;1.25;;;;;;;;;;5029176;28;20030;-76
2023/07/17 07:59:51;;;;;;;2.30;1.40;;;;;;;;;;5029504;28;20029;-75
2023/07/17 08:02:19;;;;;;;4.55;1.60;;;;;;;;;;5028845;28;20076;-75
2023/07/17 08:04:45;;;;;;;1.98;1.27;;;;;;;;;;5025662;28;20030;-75
2023/07/17 08:07:11;;;;;;;2.70;1.60;;;;;;;;;;5042293;28;20417;-75
2023/07/17 08:09:37;;;;;;;2.72;1.48;;;;;;;;;;5028149;28;20128;-74
2023/07/17 08:12:04;;;;;;;2.75;1.45;;;;;;;;;;5028836;28;20101;-74
2023/07/17 08:14:30;;;;;;;2.03;1.25;;;;;;;;;;5028728;28;20033;-74
2023/07/17 08:16:56;;;;;;;3.95;1.48;;;;;;;;;;5028303;28;20036;-75
2023/07/17 08:19:22;;;;;;;3.03;1.38;;;;;;;;;;5025402;28;20105;-75
2023/07/17 08:21:48;;;;;;;1.60;1.23;;;;;;;;;;5028302;28;20443;-75
2023/07/17 08:24:14;;;;;;;3.85;1.40;;;;;;;;;;5028828;28;20084;-75
2023/07/17 08:26:40;;;;;;;2.75;1.80;;;;;;;;;;5031918;28;20388;-75
2023/07/17 08:29:07;;;;;;;2.15;1.50;;;;;;;;;;5035086;28;20034;-75
2023/07/17 08:31:33;;;;;;;1.67;1.40;;;;;;;;;;5025786;28;20065;-75
2023/07/17 08:34:03;;;;;;;2.00;1.33;;;;;;;;;;5026720;28;20056;-75
2023/07/17 08:36:30;;;;;;;2.80;1.67;;;;;;;;;;5024468;28;20028;-77
2023/07/17 08:38:55;;;;;;;1.33;1.05;;;;;;;;;;5032678;28;20030;-77
2023/07/17 08:41:22;;;;;;;2.13;1.30;;;;;;;;;;5029944;28;20040;-77
2023/07/17 08:43:49;;;;;;;2.55;1.15;;;;;;;;;;5030149;28;20025;-76
2023/07/17 08:46:15;;;;;;;2.63;1.63;;;;;;;;;;5028795;28;20100;-77
2023/07/17 08:48:43;;;;;;;2.75;1.50;;;;;;;;;;5030995;28;20157;-77
2023/07/17 08:51:10;;;;;;;2.28;1.20;;;;;;;;;;5032110;28;20041;-77
2023/07/17 08:53:36;;;;;;;2.63;1.48;;;;;;;;;;5029766;28;20720;-76
2023/07/17 08:56:02;;;;;;;2.22;1.15;;;;;;;;;;5029942;28;20029;-76
2023/07/17 08:58:29;;;;;;;1.73;1.10;;;;;;;;;;5029835;28;20046;-76
2023/07/17 09:00:55;;;;;;;5.03;1.52;;;;;;;;;;5028283;28;20048;-76
2023/07/17 09:03:21;;;;;;;2.17;1.30;;;;;;;;;;5023567;28;20034;-76
2023/07/17 09:05:47;;;;;;;1.85;1.23;;;;;;;;;;5029458;28;20488;-76
2023/07/17 09:08:14;;;;;;;2.70;1.58;;;;;;;;;;5029922;28;20543;-76
2023/07/17 09:10:40;;;;;;;1.92;1.17;;;;;;;;;;5034908;28;20551;-76
2023/07/17 09:13:06;;;;;;;2.40;1.30;;;;;;;;;;5029837;28;20404;-76
2023/07/17 09:15:32;;;;;;;2.92;1.25;;;;;;;;;;5021614;28;20025;-76
2023/07/17 09:17:59;;;;;;;2.03;1.83;;;;;;;;;;5029438;28;20486;-76
2023/07/17 09:20:25;;;;;;;4.03;1.30;;;;;;;;;;5026819;28;20102;-76
2023/07/17 09:22:55;;;;;;;2.65;1.30;;;;;;;;;;5023717;28;20107;-74
2023/07/17 09:25:25;;;;;;;1.98;1.38;;;;;;;;;;5033831;28;20031;-75
2023/07/17 09:27:51;;;;;;;1.70;1.08;;;;;;;;;;5032388;28;20025;-73
2023/07/17 09:30:19;;;;;;;2.33;1.70;;;;;;;;;;5031568;28;20444;-73
2023/07/17 09:32:46;;;;;;;1.38;1.17;;;;;;;;;;5032107;28;20022;-73
2023/07/17 09:35:13;;;;;;;1.83;1.10;;;;;;;;;;5030435;28;20087;-75
2023/07/17 09:37:42;;;;;;;1.02;0.93;;;;;;;;;;5035441;28;20099;-75
2023/07/17 09:40:10;;;;;;;3.67;1.42;;;;;;;;;;5039473;28;20026;-76
2023/07/17 09:42:37;;;;;;;1.23;1.08;;;;;;;;;;5028499;28;20026;-75
2023/07/17 09:45:03;;;;;;;5.15;1.70;;;;;;;;;;5033782;28;20022;-75
2023/07/17 09:47:31;;;;;;;3.17;1.35;;;;;;;;;;5026907;28;20029;-75
2023/07/17 09:50:01;;;;;;;3.15;1.50;;;;;;;;;;5032166;28;20029;-75
2023/07/17 09:52:30;;;;;;;4.20;1.27;;;;;;;;;;5032269;28;20026;-76
2023/07/17 09:55:00;;;;;;;2.08;1.30;;;;;;;;;;5031637;28;20025;-75
2023/07/17 09:57:28;;;;;;;2.38;1.48;;;;;;;;;;5031511;28;20722;-75
2023/07/17 10:00:03;;;;;;;3.13;1.80;;;;;;;;;;5040480;28;20120;-75
2023/07/17 10:02:30;;;;;;;1.25;1.15;;;;;;;;;;5014930;28;20374;-74
2023/07/17 10:04:58;;;;;;;2.83;1.55;;;;;;;;;;5030982;28;20024;-75
2023/07/17 10:07:25;;;;;;;1.25;1.10;;;;;;;;;;5029941;28;20509;-76
2023/07/17 10:09:53;;;;;;;1.33;1.13;;;;;;;;;;5030500;28;20746;-75
2023/07/17 10:12:20;;;;;;;2.92;1.55;;;;;;;;;;5030835;28;20420;-75
2023/07/17 10:14:46;;;;;;;3.47;1.45;;;;;;;;;;5031156;28;20041;-75
2023/07/17 10:17:29;;;;;;;4.65;1.90;;;;;;;;;;5029849;28;20121;-76
2023/07/17 10:19:58;;;;;;;2.78;1.30;;;;;;;;;;5036986;28;20025;-75
2023/07/17 10:22:28;;;;;;;2.67;1.02;;;;;;;;;;5025113;28;20021;-75
2023/07/17 10:24:55;;;;;;;1.20;1.10;;;;;;;;;;5031043;28;20195;-73
2023/07/17 10:27:38;;;;;;;1.95;1.15;;;;;;;;;;5035570;28;20487;-74
2023/07/17 10:30:22;;;;;;;2.15;1.30;;;;;;;;;;5041381;28;20140;-74
2023/07/17 10:32:50;;;;;;;2.35;1.30;;;;;;;;;;5029303;28;20035;-74
2023/07/17 10:35:20;;;;;;;3.15;1.45;;;;;;;;;;5030423;28;20025;-73
2023/07/17 10:37:46;;;;;;;2.80;1.38;;;;;;;;;;5029873;28;20030;-74
2023/07/17 10:40:27;;;;;;;2.88;1.55;;;;;;;;;;5019281;28;20092;-76
2023/07/17 10:42:53;;;;;;;2.30;1.33;;;;;;;;;;5031776;28;20186;-76
2023/07/17 10:45:19;;;;;;;1.27;1.17;;;;;;;;;;5043450;28;20392;-76
2023/07/17 10:47:49;;;;;;;2.03;1.20;;;;;;;;;;5035145;28;20029;-76
2023/07/17 10:50:18;;;;;;;2.67;1.38;;;;;;;;;;5029060;28;20617;-76
2023/07/17 10:52:44;;;;;;;2.95;1.70;;;;;;;;;;5045350;28;20078;-76
2023/07/17 10:55:10;;;;;;;1.90;1.27;;;;;;;;;;5034776;28;20041;-76
2023/07/17 10:57:38;;;;;;;2.55;1.30;;;;;;;;;;5031081;28;20528;-77
2023/07/17 11:00:04;;;;;;;1.88;1.17;;;;;;;;;;5029290;28;20026;-76
2023/07/17 11:02:30;;;;;;;3.88;1.55;;;;;;;;;;5038609;28;20021;-77
2023/07/17 11:04:58;;;;;;;2.08;1.48;;;;;;;;;;5030402;28;20044;-78
2023/07/17 11:07:24;;;;;;;3.25;1.05;;;;;;;;;;5031406;28;20140;-78
2023/07/17 11:09:50;;;;;;;2.60;1.13;;;;;;;;;;5030253;28;20033;-76
2023/07/17 11:12:20;;;;;;;1.58;1.20;;;;;;;;;;5029601;28;20469;-76
2023/07/17 11:14:46;;;;;;;2.28;1.00;;;;;;;;;;5019206;28;20025;-78
2023/07/17 11:17:12;;;;;;;3.67;1.75;;;;;;;;;;5027197;28;20720;-77
2023/07/17 11:19:38;;;;;;;2.05;1.20;;;;;;;;;;5027219;28;20021;-77
2023/07/17 11:22:04;;;;;;;1.77;1.13;;;;;;;;;;5023436;28;20025;-76
2023/07/17 11:24:30;;;;;;;5.10;1.30;;;;;;;;;;5042113;28;20547;-76
2023/07/17 11:26:58;;;;;;;2.83;1.35;;;;;;;;;;5027868;28;20017;-76
2023/07/17 11:29:24;;;;;;;2.25;1.02;;;;;;;;;;5026803;28;20048;-77
2023/07/17 11:31:56;;;;;;;1.35;1.20;;;;;;;;;;5029954;28;20021;-77
2023/07/17 11:34:23;;;;;;;1.65;1.00;;;;;;;;;;5028471;28;20045;-76
2023/07/17 11:36:49;;;;;;;2.30;1.08;;;;;;;;;;5029586;28;20035;-76
2023/07/17 11:39:17;;;;;;;1.10;1.00;;;;;;;;;;5029718;28;20026;-76
2023/07/17 11:41:47;;;;;;;0.98;0.85;;;;;;;;;;5012407;28;20032;-77
2023/07/17 11:44:23;;;;;;;1.88;1.10;;;;;;;;;;5024104;28;20037;-78
2023/07/17 11:46:52;;;;;;;1.40;1.23;;;;;;;;;;5036361;28;20075;-76
2023/07/17 11:49:18;;;;;;;1.05;0.95;;;;;;;;;;5030252;28;20056;-76
2023/07/17 11:51:44;;;;;;;1.33;1.00;;;;;;;;;;5030320;28;20041;-77
2023/07/17 11:54:10;;;;;;;2.75;1.45;;;;;;;;;;5029745;28;20088;-76
2023/07/17 11:56:37;;;;;;;2.50;1.02;;;;;;;;;;5038074;28;20116;-77
2023/07/17 11:59:04;;;;;;;1.83;1.15;;;;;;;;;;5017191;28;20041;-77
2023/07/17 12:01:30;;;;;;;1.38;1.13;;;;;;;;;;5030419;28;20025;-76
2023/07/17 12:03:56;;;;;;;1.27;1.08;;;;;;;;;;5029366;28;20029;-77
2023/07/17 12:06:26;;;;;;;1.38;1.10;;;;;;;;;;5031927;28;20052;-76
2023/07/17 12:08:52;;;;;;;1.50;1.08;;;;;;;;;;5044271;28;20033;-77
2023/07/17 12:11:18;;;;;;;1.52;1.20;;;;;;;;;;5015871;28;20022;-77
2023/07/17 12:13:44;;;;;;;2.05;1.27;;;;;;;;;;5023185;28;20029;-77
2023/07/17 12:16:10;;;;;;;1.27;1.17;;;;;;;;;;5023719;28;20556;-77
2023/07/17 12:18:36;;;;;;;2.17;1.30;;;;;;;;;;5021956;28;20029;-76
2023/07/17 12:21:01;;;;;;;1.08;0.98;;;;;;;;;;5026243;28;20395;-77
2023/07/17 12:23:27;;;;;;;5.05;1.35;;;;;;;;;;5031270;28;20087;-77
2023/07/17 12:25:53;;;;;;;1.73;1.60;;;;;;;;;;5028709;28;20112;-77
2023/07/17 12:28:19;;;;;;;1.10;1.00;;;;;;;;;;5028866;28;20021;-77
2023/07/17 12:30:45;;;;;;;1.63;1.20;;;;;;;;;;5026166;28;20392;-74
2023/07/17 12:33:11;;;;;;;3.90;1.50;;;;;;;;;;5026581;28;20039;-76
2023/07/17 12:35:37;;;;;;;1.63;1.20;;;;;;;;;;5027269;28;20021;-77
2023/07/17 12:38:03;;;;;;;1.42;1.13;;;;;;;;;;5028551;28;20026;-75
2023/07/17 12:40:29;;;;;;;2.80;1.17;;;;;;;;;;5026610;28;20036;-77
2023/07/17 12:42:55;;;;;;;1.90;1.25;;;;;;;;;;5017189;28;20030;-76
2023/07/17 12:45:21;;;;;;;1.38;1.20;;;;;;;;;;5023808;28;20533;-76
2023/07/17 12:47:47;;;;;;;1.48;1.20;;;;;;;;;;5022625;28;20037;-75
2023/07/17 12:50:13;;;;;;;1.88;1.10;;;;;;;;;;5024309;28;20037;-76
2023/07/17 12:52:39;;;;;;;1.13;1.02;;;;;;;;;;5024631;28;20095;-76
2023/07/17 12:55:05;;;;;;;1.67;1.00;;;;;;;;;;5027109;28;20481;-78
2023/07/17 12:57:32;;;;;;;1.42;0.82;;;;;;;;;;5019803;28;20033;-77
2023/07/17 12:59:58;;;;;;;2.55;1.05;;;;;;;;;;5036803;28;20083;-78
2023/07/17 13:02:24;;;;;;;1.75;1.02;;;;;;;;;;5034760;28;20558;-79
2023/07/17 13:04:50;;;;;;;2.45;1.13;;;;;;;;;;5033876;28;20384;-79
2023/07/17 13:07:16;;;;;;;3.13;1.08;;;;;;;;;;5032073;28;20427;-78
2023/07/17 13:09:42;;;;;;;2.08;1.20;;;;;;;;;;5031982;28;20025;-77
2023/07/17 13:12:08;;;;;;;1.23;1.13;;;;;;;;;;5034643;28;20033;-78
2023/07/17 13:14:34;;;;;;;1.70;1.02;;;;;;;;;;5042240;28;20060;-78
2023/07/17 13:17:00;;;;;;;1.38;1.10;;;;;;;;;;5032134;28;20021;-78
2023/07/17 13:19:26;;;;;;;0.88;0.88;;;;;;;;;;5032530;28;20475;-81
2023/07/17 13:21:52;;;;;;;1.38;1.05;;;;;;;;;;5030820;28;20021;-84
2023/07/17 13:24:20;;;;;;;2.92;1.33;;;;;;;;;;5018335;28;20034;-83
2023/07/17 13:26:46;;;;;;;1.98;1.35;;;;;;;;;;5027824;28;20108;-82
2023/07/17 13:29:12;;;;;;;1.23;0.93;;;;;;;;;;5032769;28;20040;-81
2023/07/17 13:31:38;;;;;;;1.60;1.10;;;;;;;;;;5040793;28;20037;-81
2023/07/17 13:34:04;;;;;;;1.30;1.10;;;;;;;;;;5036690;28;20087;-81
2023/07/17 13:36:30;;;;;;;1.30;1.00;;;;;;;;;;5032162;28;20028;-83
2023/07/17 13:38:56;;;;;;;1.35;1.13;;;;;;;;;;5024529;28;20779;-81
2023/07/17 13:41:40;;;;;;;2.03;0.88;;;;;;;;;;5026916;28;20033;-81
2023/07/17 13:44:06;;;;;;;1.95;0.90;;;;;;;;;;5024792;28;20036;-81
2023/07/17 13:46:32;;;;;;;1.48;1.05;;;;;;;;;;5019411;28;20175;-81
2023/07/17 13:48:58;;;;;;;0.98;0.90;;;;;;;;;;5028715;28;20116;-82
2023/07/17 13:51:24;;;;;;;1.15;1.05;;;;;;;;;;5037192;28;20503;-81
2023/07/17 13:53:50;;;;;;;1.38;1.15;;;;;;;;;;5031398;28;20183;-81
2023/07/17 13:56:16;;;;;;;1.67;1.13;;;;;;;;;;5031274;28;20022;-81
2023/07/17 13:58:42;;;;;;;0.90;0.80;;;;;;;;;;5031690;28;20018;-82
2023/07/17 14:01:09;;;;;;;1.63;1.00;;;;;;;;;;5033152;28;20546;-83
2023/07/17 14:03:35;;;;;;;0.75;0.70;;;;;;;;;;5009751;28;20112;-82
2023/07/17 14:06:00;;;;;;;1.15;1.02;;;;;;;;;;5019988;28;20060;-82
2023/07/17 14:08:26;;;;;;;1.98;0.95;;;;;;;;;;5030613;28;20037;-83
2023/07/17 14:10:52;;;;;;;2.05;1.60;;;;;;;;;;5030952;28;20033;-82
2023/07/17 14:13:18;;;;;;;1.42;0.88;;;;;;;;;;5025760;28;20025;-81
2023/07/17 14:15:47;;;;;;;1.00;0.82;;;;;;;;;;5031388;28;20029;-82
2023/07/17 14:18:13;;;;;;;0.95;0.90;;;;;;;;;;5038376;28;20056;-77
2023/07/17 14:20:39;;;;;;;1.38;0.80;;;;;;;;;;5031574;28;20600;-78
2023/07/17 14:23:05;;;;;;;1.50;1.00;;;;;;;;;;5031418;28;20200;-83
2023/07/17 14:25:31;;;;;;;1.65;0.80;;;;;;;;;;5034683;28;20022;-82
2023/07/17 14:27:58;;;;;;;2.17;1.42;;;;;;;;;;5055907;22;20059;-81
2023/07/17 14:30:24;;;;;;;3.30;0.95;;;;;;;;;;5073700;28;20028;-81
2023/07/17 14:32:50;;;;;;;1.08;0.82;;;;;;;;;;5075649;28;20106;-82
2023/07/17 14:35:16;;;;;;;2.05;1.00;;;;;;;;;;5070923;28;20161;-81
2023/07/17 14:37:45;;;;;;;1.95;1.17;;;;;;;;;;5069838;28;20048;-82
2023/07/17 14:40:11;;;;;;;2.88;1.13;;;;;;;;;;5070269;28;20024;-81